createdAt,value
2019-02-26T00:00:14.389Z,11.50
2019-02-26T00:03:26.412Z,10.10
2019-02-26T00:06:42.454Z,8.97
2019-02-26T00:09:57.536Z,8.13
2019-02-26T00:13:12.190Z,6.80
2019-02-26T00:16:25.808Z,14.70
2019-02-26T00:19:40.057Z,10.87
2019-02-26T00:22:55.401Z,9.90
2019-02-26T00:26:10.710Z,7.20
2019-02-26T00:29:25.428Z,8.00
2019-02-26T00:32:40.559Z,7.43
2019-02-26T00:35:54.477Z,7.47
2019-02-26T00:39:08.075Z,7.83
2019-02-26T00:42:23.842Z,8.47
2019-02-26T00:45:39.103Z,5.43
2019-02-26T00:48:52.562Z,9.63
2019-02-26T00:52:06.826Z,7.73
2019-02-26T00:55:25.462Z,5.73
2019-02-26T00:58:38.892Z,9.80
2019-02-26T01:01:53.072Z,9.77
2019-02-26T01:05:08.785Z,9.97
2019-02-26T01:08:23.803Z,9.00
2019-02-26T01:11:37.682Z,8.37
2019-02-26T01:14:51.217Z,8.63
2019-02-26T01:18:05.712Z,8.63
2019-02-26T01:21:22.169Z,12.10
2019-02-26T01:24:34.949Z,13.40
2019-02-26T01:27:51.108Z,10.70
2019-02-26T01:31:04.996Z,10.43
2019-02-26T01:34:20.383Z,7.60
2019-02-26T01:37:36.176Z,10.70
2019-02-26T01:40:52.006Z,10.17
2019-02-26T01:44:04.985Z,10.13
2019-02-26T01:47:19.600Z,9.70
2019-02-26T01:50:35.637Z,13.90
2019-02-26T01:53:51.912Z,16.20
2019-02-26T01:57:08.575Z,14.20
2019-02-26T02:00:20.778Z,11.77
2019-02-26T02:03:34.879Z,8.53
2019-02-26T02:06:48.694Z,10.10
2019-02-26T02:10:03.252Z,14.47
2019-02-26T02:13:17.059Z,11.63
2019-02-26T02:16:31.396Z,11.57
2019-02-26T02:19:46.223Z,8.20
2019-02-26T02:23:00.932Z,9.13
2019-02-26T02:26:15.714Z,8.90
2019-02-26T02:29:29.511Z,7.47
2019-02-26T02:32:43.063Z,7.53
2019-02-26T02:35:56.523Z,6.43
2019-02-26T02:39:12.952Z,6.80
2019-02-26T02:42:25.902Z,8.63
2019-02-26T02:45:39.370Z,10.87
2019-02-26T02:48:52.833Z,9.43
2019-02-26T02:52:07.235Z,8.17
2019-02-26T02:55:21.688Z,7.97
2019-02-26T02:58:35.186Z,6.60
2019-02-26T03:01:51.353Z,6.67
2019-02-26T03:05:04.630Z,6.37
2019-02-26T03:08:21.986Z,5.63
2019-02-26T03:11:38.646Z,5.83
2019-02-26T03:14:49.548Z,6.07
2019-02-26T03:18:04.130Z,6.93
2019-02-26T03:21:20.198Z,6.40
2019-02-26T03:24:35.932Z,6.97
2019-02-26T03:27:49.892Z,6.53
2019-02-26T03:31:03.615Z,6.57
2019-02-26T03:34:21.773Z,6.57
2019-02-26T03:37:34.616Z,6.17
2019-02-26T03:40:49.338Z,5.97
2019-02-26T03:44:05.854Z,6.10
2019-02-26T03:47:19.293Z,6.10
2019-02-26T03:50:32.738Z,6.47
2019-02-26T03:53:46.223Z,5.83
2019-02-26T03:57:00.406Z,6.03
2019-02-26T04:00:16.747Z,5.93
2019-02-26T04:03:32.039Z,5.70
2019-02-26T04:06:47.104Z,5.67
2019-02-26T04:10:01.227Z,5.40
2019-02-26T04:13:14.695Z,6.30
2019-02-26T04:16:29.851Z,5.90
2019-02-26T04:19:44.475Z,6.03
2019-02-26T04:22:58.236Z,6.03
2019-02-26T04:26:35.176Z,6.50
2019-02-26T04:29:59.391Z,7.53
2019-02-26T04:33:40.736Z,17.37
2019-02-26T04:37:32.748Z,8.13
2019-02-26T04:41:00.193Z,7.87
2019-02-26T04:45:05.869Z,6.83
2019-02-26T04:48:23.633Z,6.93
2019-02-26T04:51:39.108Z,6.70
2019-02-26T04:54:51.930Z,6.00
2019-02-26T04:58:05.417Z,7.10
2019-02-26T05:01:19.279Z,6.27
2019-02-26T05:04:33.971Z,6.03
2019-02-26T05:07:50.055Z,6.70
2019-02-26T05:11:03.998Z,7.00
2019-02-26T05:14:23.009Z,6.47
2019-02-26T05:17:33.399Z,6.27
2019-02-26T05:20:48.395Z,6.80
2019-02-26T05:24:03.070Z,8.73
2019-02-26T05:27:19.743Z,12.43
2019-02-26T05:30:32.627Z,11.80
2019-02-26T05:33:46.835Z,9.10
2019-02-26T05:37:02.423Z,8.90
2019-02-26T05:40:21.438Z,7.70
2019-02-26T05:43:34.050Z,7.93
2019-02-26T05:46:50.063Z,22.77
2019-02-26T05:50:06.391Z,9.83
2019-02-26T05:53:19.256Z,13.33
2019-02-26T05:56:34.140Z,23.73
2019-02-26T05:59:48.199Z,24.50
2019-02-26T06:03:03.462Z,17.73
2019-02-26T06:06:17.396Z,10.10
2019-02-26T06:09:33.770Z,14.63
2019-02-26T06:12:46.997Z,17.97
2019-02-26T06:16:01.975Z,19.17
2019-02-26T06:19:18.930Z,14.23
2019-02-26T06:22:34.626Z,10.90
2019-02-26T06:25:48.262Z,10.90
2019-02-26T06:29:01.766Z,10.93
2019-02-26T06:32:15.339Z,9.13
2019-02-26T06:35:28.995Z,8.70
2019-02-26T06:38:42.430Z,8.70
2019-02-26T06:41:56.166Z,10.30
2019-02-26T06:45:13.242Z,11.20
2019-02-26T06:48:29.190Z,13.43
2019-02-26T06:51:42.990Z,12.53
2019-02-26T06:55:00.059Z,15.37
2019-02-26T06:58:20.779Z,12.87
2019-02-26T07:01:35.267Z,11.97
2019-02-26T07:04:50.284Z,10.97
2019-02-26T07:08:04.813Z,9.13
2019-02-26T07:11:19.563Z,8.73
2019-02-26T07:14:34.525Z,9.40
2019-02-26T07:17:48.050Z,9.27
2019-02-26T07:21:01.536Z,10.67
2019-02-26T07:24:17.347Z,12.13
2019-02-26T07:27:31.992Z,21.07
2019-02-26T07:30:46.912Z,16.43
2019-02-26T07:34:02.847Z,12.00
2019-02-26T07:37:16.065Z,9.20
2019-02-26T07:40:30.519Z,9.30
2019-02-26T07:43:46.880Z,8.70
2019-02-26T07:47:01.539Z,8.87
2019-02-26T07:50:17.423Z,9.10
2019-02-26T07:53:31.787Z,10.03
2019-02-26T07:56:45.280Z,8.93
2019-02-26T07:59:59.124Z,10.47
2019-02-26T08:03:13.143Z,10.97
2019-02-26T08:06:29.197Z,13.53
2019-02-26T08:09:42.415Z,15.27
2019-02-26T08:12:56.723Z,18.33
2019-02-26T08:16:11.455Z,17.27
2019-02-26T08:19:29.478Z,14.57
2019-02-26T08:22:41.026Z,13.27
2019-02-26T08:25:55.648Z,14.40
2019-02-26T08:29:12.350Z,13.00
2019-02-26T08:32:27.919Z,15.90
2019-02-26T08:35:41.541Z,13.93
2019-02-26T08:38:57.101Z,14.97
2019-02-26T08:42:11.124Z,11.50
2019-02-26T08:45:25.759Z,12.20
2019-02-26T08:48:41.370Z,14.30
2019-02-26T08:51:55.336Z,21.53
2019-02-26T08:55:10.742Z,25.77
2019-02-26T08:58:26.361Z,29.13
2019-02-26T09:01:41.315Z,38.47
2019-02-26T09:04:55.089Z,35.43
2019-02-26T09:08:10.866Z,26.73
2019-02-26T09:11:26.149Z,27.13
2019-02-26T09:14:42.382Z,28.73
2019-02-26T09:17:55.515Z,25.47
2019-02-26T09:21:10.236Z,20.30
2019-02-26T09:24:25.107Z,13.60
2019-02-26T09:27:42.758Z,12.17
2019-02-26T09:30:56.337Z,16.40
2019-02-26T09:34:10.054Z,14.03
2019-02-26T09:37:23.564Z,12.47
2019-02-26T09:40:37.371Z,10.20
2019-02-26T09:43:50.889Z,12.67
2019-02-26T09:47:05.446Z,11.40
2019-02-26T09:50:22.542Z,7.73
2019-02-26T09:53:35.567Z,7.37
2019-02-26T09:56:49.168Z,6.20
2019-02-26T10:00:05.725Z,5.60
2019-02-26T10:03:19.518Z,5.80
2019-02-26T10:06:34.591Z,7.03
2019-02-26T10:09:49.007Z,7.93
2019-02-26T10:13:04.751Z,7.60
2019-02-26T10:16:18.194Z,9.50
2019-02-26T10:19:33.722Z,8.50
2019-02-26T10:22:47.160Z,9.07
2019-02-26T10:26:02.833Z,9.27
2019-02-26T10:29:16.310Z,9.23
2019-02-26T10:32:29.793Z,8.87
2019-02-26T10:35:45.562Z,8.57
2019-02-26T10:39:02.279Z,8.73
2019-02-26T10:42:14.966Z,8.77
2019-02-26T10:45:28.541Z,8.93
2019-02-26T10:48:43.412Z,10.23
2019-02-26T10:51:58.641Z,9.93
2019-02-26T10:55:15.127Z,9.93
2019-02-26T10:58:28.713Z,6.80
2019-02-26T11:01:43.319Z,5.47
2019-02-26T11:04:56.983Z,5.80
2019-02-26T11:08:10.756Z,5.63
2019-02-26T11:11:24.286Z,7.17
2019-02-26T11:14:39.615Z,5.30
2019-02-26T11:17:55.684Z,9.13
2019-02-26T11:21:09.616Z,9.70
2019-02-26T11:24:23.918Z,7.30
2019-02-26T11:27:40.877Z,7.13
2019-02-26T11:30:56.570Z,6.43
2019-02-26T11:34:11.246Z,6.50
2019-02-26T11:37:27.150Z,7.70
2019-02-26T11:40:41.247Z,8.90
2019-02-26T11:43:55.015Z,8.33
2019-02-26T11:47:10.983Z,8.27
2019-02-26T11:50:28.209Z,7.53
2019-02-26T11:53:40.254Z,7.77
2019-02-26T11:56:53.908Z,6.67
2019-02-26T12:00:13.945Z,8.00
2019-02-26T12:03:30.346Z,5.20
2019-02-26T12:06:43.741Z,5.00
2019-02-26T12:09:57.962Z,4.70
2019-02-26T12:13:14.681Z,4.60
2019-02-26T12:16:29.155Z,3.93
2019-02-26T12:19:42.994Z,2.93
2019-02-26T12:22:56.485Z,2.80
2019-02-26T12:26:10.286Z,3.70
2019-02-26T12:29:25.839Z,3.43
2019-02-26T12:32:39.371Z,3.77
2019-02-26T12:35:55.519Z,4.07
2019-02-26T12:39:08.443Z,3.67
2019-02-26T12:42:21.941Z,4.70
2019-02-26T12:45:38.668Z,4.73
2019-02-26T12:48:50.912Z,4.37
2019-02-26T12:52:04.505Z,4.50
2019-02-26T12:55:18.262Z,5.13
2019-02-26T12:58:31.991Z,4.90
2019-02-26T13:01:46.814Z,5.33
2019-02-26T13:05:00.975Z,5.20
2019-02-26T13:08:18.931Z,4.33
2019-02-26T13:11:30.256Z,5.30
2019-02-26T13:14:47.307Z,5.30
2019-02-26T13:18:00.046Z,5.40
2019-02-26T13:21:16.992Z,5.20
2019-02-26T13:24:29.435Z,4.57
2019-02-26T13:27:45.261Z,4.50
2019-02-26T13:31:02.294Z,5.33
2019-02-26T13:34:17.104Z,5.53
2019-02-26T13:37:32.444Z,5.53
2019-02-26T13:40:45.986Z,6.27
2019-02-26T13:43:59.603Z,5.60
2019-02-26T13:47:13.638Z,5.70
2019-02-26T13:50:27.512Z,5.50
2019-02-26T13:53:41.305Z,5.37
2019-02-26T13:56:55.421Z,5.70
2019-02-26T14:00:10.415Z,6.00
2019-02-26T14:03:24.288Z,5.30
2019-02-26T14:06:38.055Z,5.13
2019-02-26T14:09:51.706Z,5.70
2019-02-26T14:13:05.283Z,5.30
2019-02-26T14:16:18.997Z,5.07
2019-02-26T14:19:32.535Z,5.43
2019-02-26T14:22:46.533Z,6.00
2019-02-26T14:26:00.038Z,5.93
2019-02-26T14:29:13.705Z,4.80
2019-02-26T14:32:27.601Z,5.93
2019-02-26T14:35:41.193Z,5.60
2019-02-26T14:38:55.154Z,6.87
2019-02-26T14:42:09.094Z,6.20
2019-02-26T14:45:23.274Z,6.00
2019-02-26T14:48:37.040Z,6.27
2019-02-26T14:51:51.510Z,6.13
2019-02-26T14:55:05.637Z,6.70
2019-02-26T14:58:19.495Z,5.87
2019-02-26T15:01:33.060Z,5.80
2019-02-26T15:04:47.379Z,5.80
2019-02-26T15:08:01.436Z,5.30
2019-02-26T15:11:15.149Z,5.53
2019-02-26T15:14:30.059Z,5.40
2019-02-26T15:17:44.166Z,4.73
2019-02-26T15:20:57.943Z,4.70
2019-02-26T15:24:12.087Z,5.80
2019-02-26T15:27:25.740Z,18.80
2019-02-26T15:30:40.237Z,6.20
2019-02-26T15:33:58.131Z,5.43
2019-02-26T15:37:11.602Z,5.67
2019-02-26T15:40:25.890Z,5.10
2019-02-26T15:43:39.904Z,4.57
2019-02-26T15:46:53.475Z,4.43
2019-02-26T15:50:09.539Z,4.37
2019-02-26T15:53:23.805Z,4.37
2019-02-26T15:56:39.526Z,4.23
2019-02-26T15:59:53.017Z,4.03
2019-02-26T16:03:06.924Z,3.70
2019-02-26T16:06:20.792Z,4.43
2019-02-26T16:09:35.746Z,4.60
2019-02-26T16:12:50.777Z,4.67
2019-02-26T16:16:04.438Z,3.53
2019-02-26T16:19:18.143Z,3.63
2019-02-26T16:22:32.385Z,4.30
2019-02-26T16:25:46.972Z,5.07
2019-02-26T16:29:01.074Z,6.57
2019-02-26T16:32:16.082Z,5.13
2019-02-26T16:35:30.108Z,4.70
2019-02-26T16:38:43.938Z,5.23
2019-02-26T16:41:58.057Z,24.07
2019-02-26T16:45:35.089Z,14.23
2019-02-26T16:48:48.960Z,11.17
2019-02-26T16:52:05.888Z,5.70
2019-02-26T16:55:20.007Z,20.43
2019-02-26T16:58:37.278Z,15.90
2019-02-26T17:01:52.625Z,11.13
2019-02-26T17:05:07.490Z,9.70
2019-02-26T17:08:21.481Z,11.83
2019-02-26T17:11:55.153Z,14.53
2019-02-26T17:15:15.154Z,18.40
2019-02-26T17:18:28.933Z,13.87
2019-02-26T17:21:44.450Z,18.73
2019-02-26T17:24:57.933Z,15.93
2019-02-26T17:28:12.365Z,7.50
2019-02-26T17:31:28.722Z,10.83
2019-02-26T17:34:42.005Z,10.80
2019-02-26T17:37:55.700Z,10.87
2019-02-26T17:41:09.902Z,7.83
2019-02-26T17:44:24.710Z,7.40
2019-02-26T17:47:38.211Z,7.57
2019-02-26T17:50:51.801Z,6.10
2019-02-26T17:54:05.488Z,7.43
2019-02-26T17:57:19.660Z,14.27
2019-02-26T18:00:36.634Z,9.30
2019-02-26T18:03:50.192Z,11.10
2019-02-26T18:07:03.979Z,8.63
2019-02-26T18:10:18.682Z,7.00
2019-02-26T18:13:32.234Z,6.40
2019-02-26T18:16:45.706Z,7.90
2019-02-26T18:19:59.183Z,8.40
2019-02-26T18:23:13.262Z,16.37
2019-02-26T18:26:26.753Z,9.30
2019-02-26T18:29:40.226Z,8.53
2019-02-26T18:32:57.408Z,23.93
2019-02-26T18:36:12.508Z,14.20
2019-02-26T18:39:25.982Z,7.70
2019-02-26T18:42:41.374Z,13.93
2019-02-26T18:45:54.946Z,34.50
2019-02-26T18:49:08.739Z,23.33
2019-02-26T18:52:22.739Z,25.77
2019-02-26T18:55:36.200Z,11.73
2019-02-26T18:58:50.481Z,18.80
2019-02-26T19:02:05.052Z,12.40
2019-02-26T19:05:21.033Z,22.90
2019-02-26T19:08:34.721Z,21.57
2019-02-26T19:11:48.505Z,12.80
2019-02-26T19:15:02.305Z,11.43
2019-02-26T19:18:15.766Z,8.33
2019-02-26T19:21:29.226Z,7.00
2019-02-26T19:24:42.806Z,19.97
2019-02-26T19:27:56.378Z,18.50
2019-02-26T19:31:10.344Z,13.77
2019-02-26T19:34:28.053Z,11.17
2019-02-26T19:37:39.954Z,11.17
2019-02-26T19:40:53.986Z,7.73
2019-02-26T19:44:07.792Z,10.03
2019-02-26T19:47:22.745Z,10.03
2019-02-26T19:50:36.833Z,8.60
2019-02-26T19:53:50.856Z,11.60
2019-02-26T19:57:04.317Z,9.27
2019-02-26T20:00:19.890Z,8.83
2019-02-26T20:03:39.931Z,8.40
2019-02-26T20:06:48.905Z,7.97
2019-02-26T20:10:03.081Z,7.07
2019-02-26T20:13:16.566Z,7.33
2019-02-26T20:16:30.074Z,7.40
2019-02-26T20:19:43.541Z,6.90
2019-02-26T20:22:57.276Z,9.00
2019-02-26T20:26:10.850Z,7.33
2019-02-26T20:29:24.704Z,5.77
2019-02-26T20:32:38.567Z,15.13
2019-02-26T20:35:52.362Z,6.40
2019-02-26T20:39:07.939Z,6.13
2019-02-26T20:42:21.813Z,9.97
2019-02-26T20:45:35.794Z,25.67
2019-02-26T20:48:49.566Z,10.17
2019-02-26T20:52:03.392Z,7.80
2019-02-26T20:55:19.251Z,10.00
2019-02-26T20:58:33.430Z,6.17
2019-02-26T21:01:47.177Z,6.00
2019-02-26T21:05:00.687Z,9.10
2019-02-26T21:08:14.257Z,7.53
2019-02-26T21:11:28.008Z,4.63
2019-02-26T21:14:41.958Z,9.73
2019-02-26T21:17:57.798Z,17.50
2019-02-26T21:21:11.711Z,12.30
2019-02-26T21:24:26.319Z,6.50
2019-02-26T21:27:39.979Z,5.60
2019-02-26T21:30:53.456Z,20.40
2019-02-26T21:34:06.916Z,6.97
2019-02-26T21:37:20.653Z,11.23
2019-02-26T21:40:34.151Z,4.73
2019-02-26T21:43:47.627Z,10.67
2019-02-26T21:47:01.097Z,13.90
2019-02-26T21:50:14.774Z,21.57
2019-02-26T21:53:28.250Z,12.63
2019-02-26T21:56:41.976Z,7.70
2019-02-26T21:59:55.424Z,23.50
2019-02-26T22:03:08.886Z,22.90
2019-02-26T22:06:22.616Z,12.07
2019-02-26T22:09:36.071Z,10.77
2019-02-26T22:12:49.533Z,13.17
2019-02-26T22:16:03.339Z,14.47
2019-02-26T22:19:17.395Z,21.20
2019-02-26T22:22:30.896Z,36.17
2019-02-26T22:25:44.635Z,39.60
2019-02-26T22:28:58.120Z,25.30
2019-02-26T22:32:11.594Z,10.20
2019-02-26T22:35:25.900Z,43.27
2019-02-26T22:38:39.963Z,43.63
2019-02-26T22:41:53.446Z,39.23
2019-02-26T22:45:07.743Z,30.40
2019-02-26T22:48:21.582Z,9.17
2019-02-26T22:51:35.283Z,8.60
2019-02-26T22:54:49.063Z,5.73
2019-02-26T22:58:03.329Z,5.37
2019-02-26T23:01:42.853Z,16.00
2019-02-26T23:04:56.423Z,9.47
2019-02-26T23:08:11.882Z,7.40
2019-02-26T23:11:25.860Z,8.93
2019-02-26T23:14:39.732Z,8.40
2019-02-26T23:17:53.404Z,41.73
2019-02-26T23:21:07.960Z,8.83
2019-02-26T23:24:21.637Z,4.10
2019-02-26T23:27:35.200Z,4.00
2019-02-26T23:30:48.855Z,3.30
2019-02-26T23:34:02.439Z,10.07
2019-02-26T23:37:15.996Z,16.17
2019-02-26T23:40:29.568Z,4.23
2019-02-26T23:43:45.436Z,6.83
2019-02-26T23:47:01.654Z,7.57
2019-02-26T23:50:14.913Z,4.60
2019-02-26T23:53:28.368Z,8.10
2019-02-26T23:56:42.067Z,4.17
2019-02-26T23:59:55.536Z,3.53
